Check time and date!

LGTT 181700Z 25005KT 9999 FEW030 27/17 Q1013 RMK SCT080
TAF LGTT 181000Z 1812/1821 05012KT 9999 FEW025 SCT050 TEMPO 1812/1814 03010G20KT PROB30 TEMPO 1812/1815 5000 TSRA FEW016CB BKN020 BKN050 BECMG 1815/1817 VRB05KT
--------------------------------------
LGMG 181700Z 00000KT 9999 BKN025 28/15 Q1011 RMK BKN070
TAF LGMG 181000Z 1812/1821 34012KT 9999 SCT025 SCT070 PROB30 TEMPO 1812/1818 5000 TSRA FEW016CB BKN020 BKN070 BECMG 1815/1817 VRB05KT
--------------------------------------
LGTG 181650Z 04004KT 9999 FEW030 29/12 Q1013 RMK SCT100 SCT180
--------------------------------------
LGEL 181650Z 00000KT 9999 FEW025 SCT070 28/17 Q1011
TAF LGEL 181700Z 1818/1918 33005KT 9999 FEW025 BECMG 1910/1912 18010KT PROB30 TEMPO 1912/1918 5000 TSRA FEW018CB BKN025
--------------------------------------
LGAV 181650Z VRB02KT 9999 FEW030 28/12 Q1013 RMK SCT100 SCT180 Q1013.0 NOSIG
TAF LGAV 181700Z 1818/1918 28006KT 9999 FEW025 BECMG 1904/1906 03010KT PROB30 TEMPO 1912/1918 5000 TSRA FEW020CB SCT025
--------------------------------------
LGAT 181700Z AUTO VRB02KT //// // ////// 24/20 Q1012 RE//
--------------------------------------
METAR LGAD 181650Z 00000KT 9999 FEW020 29/16 Q1012
METAR LGAL 181650Z 01004KT 9999 FEW020TCU SCT025 29/16 Q1011
METAR LGAV 181650Z VRB02KT 9999 FEW030 28/12 Q1013 NOSIG
METAR LGBL 181650Z 08004KT 9999 FEW025TCU SCT080 27/19 Q1012
METAR LGEL 181650Z 00000KT 9999 FEW025 SCT070 28/17 Q1011
METAR LGHI 181650Z 02006KT CAVOK 28/19 Q1008
METAR LGIO 181650Z /////KT 9999 SCT040 BKN080 24/17 Q1015
METAR LGIR 181650Z 31006KT CAVOK 26/21 Q1011 NOSIG
METAR LGKF 181650Z 32010KT CAVOK 28/22 Q1012
METAR LGKL 181650Z 35008KT 9999 FEW025 SCT080 26/12 Q1012
METAR LGKO 181650Z 30011KT 270V350 9999 FEW018 25/19 Q1010
METAR LGKP 181650Z 31012KT 9999 FEW018 25/21 Q1010
METAR LGKR 181650Z VRB03KT 9999 FEW025 30/22 Q1011 NOSIG
METAR LGKV 181650Z 22004KT 9999 FEW025TCU 28/23 Q1011
METAR LGKZ 181650Z 04008KT 9999 TS FEW018CB SCT070 22/13 Q1016
METAR LGLM 181650Z 34006KT 9999 FEW020 27/17 Q1010
METAR LGLR 181650Z 22009KT 9999 -RA FEW020TCU SCT030 BKN080 25/14 Q1012 RETS BLU
METAR LGMK 181650Z 32011KT 9999 FEW020 27/14 Q1011
METAR LGMT 181650Z 00000KT 9999 FEW020TCU 29/18 Q1010
METAR LGPA 181650Z 32007KT CAVOK 26/18 Q1012
METAR LGPZ 181650Z 23005KT 9999 FEW025 27/22 Q1013 RMK FEW080 BKN180 BLU
METAR LGRP 181650Z 24010KT 9999 FEW020 27/20 Q1008 NOSIG
METAR LGRX 181650Z 00000KT 9999 FEW020 28/21 Q1012
METAR LGSA 181650Z 09005KT 9999 FEW025 27/19 Q1012
METAR LGSK 181650Z 00000KT 9999 FEW030 27/19 Q1012
METAR LGSM 181650Z 35007KT 9999 SCT020 29/17 Q1008
METAR LGSO 181650Z AUTO 31008KT //// // ////// 27/15 Q1011 RE//
METAR LGSR 181650Z 34012KT CAVOK 28/13 Q1011
METAR LGSY 181650Z 27009KT 9999 FEW030 27/18 Q1012 RMK SCT200 BLU
METAR LGTG 181650Z 04004KT 9999 FEW030 29/12 Q1013 RMK SCT100 SCT180 BLU
METAR LGTS 181650Z 17009KT 9999 FEW020TCU 31/16 Q1011 RETS NOSIG
METAR LGZA 181650Z 04004KT 9999 FEW030 30/20 Q1012

--------------------------------------
TAF LGAD 181700Z 1818/1903 30006KT 9999 FEW020 BECMG 1822/1824 VRB03KT
TAF LGAL 181700Z 1818/1903 02010KT 9999 SCT025 PROB30 TEMPO 1818/1821 5000 TSRA FEW016CB BKN020 BKN060
TAF LGAV 181700Z 1818/1918 28006KT 9999 FEW025 BECMG 1904/1906 03010KT PROB30 TEMPO 1912/1918 5000 TSRA FEW020CB SCT025
TAF LGBL 181700Z 1818/1903 11010KT 9999 SCT025 SCT080 PROB30 TEMPO 1818/1819 6000 TSRA FEW018CB SCT025 BKN080 BECMG 1819/1821 28006KT
TAF LGEL 181700Z 1818/1918 33005KT 9999 FEW025 BECMG 1910/1912 18010KT PROB30 TEMPO 1912/1918 5000 TSRA FEW018CB BKN025
TAF LGHI 181700Z 1818/1903 01012KT 9999 FEW025
TAF LGIO 181700Z 1818/1903 VRB03KT 9999 SCT025 SCT080 BECMG 1818/1820 FEW030
TAF LGIR 181700Z 1818/1918 30015KT 9999 FEW025 BECMG 1818/1820 VRB05KT
TAF LGKC 181700Z 1818/1903 03006KT 9999 FEW018
TAF LGKF 181700Z 1818/1903 30010KT 9999 FEW020
TAF LGKL 181700Z 1818/1903 33008KT 9999 FEW025 SCT080
TAF LGKO 181700Z 1818/1918 33015KT 9999 FEW018 PROB30 TEMPO 1912/1916 5000 TSRA FEW018CB BKN025 TEMPO 1818/1821 33015G25KT
TAF LGKP 181700Z 1818/1903 31015G25KT 9999 FEW018
TAF LGKR 181700Z 1818/1918 25006KT 9999 FEW030 BECMG 1818/1820 33008KT BECMG 1901/1903 VRB05KT
TAF LGKV 181700Z 1818/1918 07005KT 9999 FEW030 SCT080 PROB40 TEMPO 1908/1912 4000 TSRA FEW018CB BKN025 BECMG 1911/1913 22010KT
TAF LGLM 181700Z 1818/1903 04012KT 9999 FEW025
TAF LGLR 181700Z 1818/1903 VRB03KT 9999 SCT025 BKN080 PROB40 TEMPO 1818/1821 6000 TSRA FEW018CB SCT025 BKN080 BECMG 1822/1824 FEW025 SCT080
TAF LGMK 181700Z 1818/1903 35018KT 9999 FEW020 TEMPO 1818/1820 35015G25KT
TAF LGMT 181700Z 1818/1903 33012KT 9999 FEW025
TAF LGPZ 181700Z 1818/1918 27010KT 9999 FEW025 SCT080 PROB30 TEMPO 1818/1820 5000 TSRA FEW018CB BKN020 BKN070 BECMG 1818/1820 VRB05KT FEW020 SCT025 PROB30 TEMPO 1912/1918 5000 TSRA FEW018CB BKN020 BKN070
TAF LGRP 181700Z 1818/1918 26010KT 9999 FEW020 PROB30 TEMPO 1912/1916 5000 TSRA FEW018CB BKN025
TAF LGRX 181700Z 1818/1903 26006KT 9999 FEW025 BECMG 1822/1824 VRB03KT
TAF LGSA 181700Z 1818/1918 04010KT 9999 FEW025 BECMG 1818/1820 VRB05KT
TAF LGSK 181700Z 1818/1903 VRB05KT 9999 FEW030
TAF LGSM 181700Z 1818/1903 36010KT 9999 FEW020
TAF LGSR 181700Z 1818/1918 32015KT 9999 FEW025
TAF LGST 181700Z 1818/1903 28018KT 9999 FEW025
TAF LGSY 181700Z 1818/1903 35010KT 9999 FEW025 BECMG 1900/1902 04010KT
TAF LGTG 181700Z 1818/1903 33007KT 9999 FEW025 SCT070 BECMG 1819/1821 VRB03KT
TAF LGTL 181700Z 1818/1903 35010KT 9999 FEW025
TAF LGTS 181700Z 1818/1918 17012KT 9999 FEW025 PROB40 TEMPO 1818/1820 4000 TSRA FEW018CB BKN025 BECMG 1818/1820 VRB03KT PROB40 TEMPO 1908/1918 4000 TSRA FEW018CB BKN025 BECMG 1911/1913 18010KT
TAF LGZA 181700Z 1818/1903 04005KT 9999 FEW020